Time;durP1;ratioP1;P1;durP2;ratioP2;P2;SDS_P1;SDS_P2;PMS_P1;PMS_P2;Temp;Humidity;BMP_temperature;BMP_pressure;BME280_temperature;BME280_humidity;BME280_pressure;Samples;Min_cycle;Max_cycle;Signal;HPM_P1;HPM_P2
2021/04/19 00:02:22;;;;;;;17.25;10.30;;;;;;;5.84;80.02;102236.34;4991385;28;20046;-81
2021/04/19 00:04:48;;;;;;;17.42;10.55;;;;;;;5.81;79.78;102233.88;4996713;28;20041;-81
2021/04/19 00:07:14;;;;;;;17.88;10.93;;;;;;;5.74;79.96;102227.22;4998288;28;20566;-81
2021/04/19 00:09:40;;;;;;;19.83;11.60;;;;;;;5.75;80.19;102223.78;5000014;28;20045;-81
2021/04/19 00:12:06;;;;;;;19.98;10.23;;;;;;;5.78;80.25;102241.75;5004436;28;20046;-81
2021/04/19 00:14:32;;;;;;;20.58;11.52;;;;;;;5.74;80.94;102238.44;4999247;28;20116;-81
2021/04/19 00:16:58;;;;;;;18.70;11.82;;;;;;;5.80;80.68;102237.38;4998969;28;20120;-81
2021/04/19 00:19:23;;;;;;;18.00;11.95;;;;;;;5.79;80.08;102237.44;4979520;28;20038;-81
2021/04/19 00:21:49;;;;;;;20.00;12.07;;;;;;;5.83;80.48;102245.00;4998719;28;20034;-80
2021/04/19 00:24:14;;;;;;;17.77;12.07;;;;;;;5.78;80.44;102222.81;5004423;28;20038;-80
2021/04/19 00:26:40;;;;;;;19.92;12.88;;;;;;;5.86;81.20;102238.88;4990653;28;20074;-81
2021/04/19 00:29:05;;;;;;;18.15;11.85;;;;;;;5.92;80.77;102234.38;4991354;28;20093;-81
2021/04/19 00:31:31;;;;;;;22.48;13.43;;;;;;;5.80;81.50;102215.84;4999953;28;20038;-81
2021/04/19 00:33:59;;;;;;;17.88;11.27;;;;;;;5.86;81.26;102228.53;5010329;28;20523;-81
2021/04/19 00:36:24;;;;;;;23.50;12.82;;;;;;;5.89;80.99;102231.00;4985411;28;20045;-81
2021/04/19 00:38:50;;;;;;;17.40;11.07;;;;;;;5.81;81.06;102220.13;4994572;28;20073;-81
2021/04/19 00:41:16;;;;;;;17.35;10.98;;;;;;;5.80;80.68;102208.09;4978274;28;20033;-81
2021/04/19 00:43:42;;;;;;;17.08;12.10;;;;;;;5.81;81.14;102217.53;4993564;28;20049;-80
2021/04/19 00:46:07;;;;;;;20.88;12.27;;;;;;;5.85;81.29;102213.94;5000645;28;20809;-81
2021/04/19 00:48:35;;;;;;;16.90;11.77;;;;;;;5.77;81.82;102198.72;4998055;28;20059;-81
2021/04/19 00:51:01;;;;;;;18.83;12.25;;;;;;;5.88;81.73;102216.41;5018392;28;20041;-80
2021/04/19 00:53:28;;;;;;;15.25;11.30;;;;;;;5.88;81.11;102217.25;4978778;28;20038;-80
2021/04/19 00:55:54;;;;;;;17.30;11.68;;;;;;;5.88;80.95;102211.22;4995895;28;20041;-81
2021/04/19 00:58:25;;;;;;;18.10;11.25;;;;;;;5.83;80.79;102205.41;4994805;28;20069;-81
2021/04/19 01:00:51;;;;;;;18.92;12.10;;;;;;;5.77;81.43;102203.88;4982233;28;20145;-80
2021/04/19 01:03:17;;;;;;;25.90;13.27;;;;;;;5.81;81.97;102210.63;4995585;28;20095;-80
2021/04/19 01:05:44;;;;;;;20.75;12.55;;;;;;;5.75;82.12;102195.34;4997632;28;20451;-80
2021/04/19 01:08:10;;;;;;;18.90;12.07;;;;;;;5.84;81.97;102202.75;4999828;28;20488;-80
2021/04/19 01:10:37;;;;;;;19.00;13.05;;;;;;;5.87;82.08;102202.63;5002455;28;20811;-80
2021/04/19 01:13:05;;;;;;;18.85;12.25;;;;;;;5.84;81.91;102194.16;4985162;28;20037;-80
2021/04/19 01:15:32;;;;;;;17.73;11.82;;;;;;;5.92;81.68;102210.25;5010361;28;20062;-80
2021/04/19 01:17:58;;;;;;;17.50;11.82;;;;;;;5.95;81.84;102199.81;4992470;28;20449;-80
2021/04/19 01:20:28;;;;;;;19.75;12.43;;;;;;;6.03;81.83;102202.94;4986082;28;20030;-80
2021/04/19 01:22:55;;;;;;;17.27;11.98;;;;;;;6.07;81.66;102212.28;4999090;28;20034;-80
2021/04/19 01:25:25;;;;;;;15.63;11.48;;;;;;;6.17;81.54;102211.06;5000557;28;20393;-80
2021/04/19 01:27:52;;;;;;;23.80;12.88;;;;;;;6.17;81.75;102205.03;4983189;28;20042;-80
2021/04/19 01:30:23;;;;;;;17.65;12.15;;;;;;;6.22;82.00;102205.69;4994631;28;20499;-80
2021/04/19 01:32:49;;;;;;;20.17;12.52;;;;;;;6.34;81.73;102213.00;4997900;28;20026;-81
2021/04/19 01:35:15;;;;;;;16.33;11.90;;;;;;;6.45;81.35;102220.34;4977431;28;20516;-80
2021/04/19 01:37:42;;;;;;;17.55;12.27;;;;;;;6.42;81.79;102216.13;4980840;28;20050;-80
2021/04/19 01:40:10;;;;;;;21.88;12.85;;;;;;;6.49;82.34;102217.59;4982184;28;20523;-80
2021/04/19 01:42:36;;;;;;;26.20;13.68;;;;;;;6.56;83.40;102225.97;4976038;28;20122;-80
2021/04/19 01:45:04;;;;;;;24.23;12.98;;;;;;;6.65;82.93;102223.03;4999020;28;20112;-80
2021/04/19 01:47:30;;;;;;;24.88;12.77;;;;;;;6.73;82.08;102225.31;5001416;28;20025;-80
2021/04/19 01:49:56;;;;;;;19.50;13.30;;;;;;;6.81;81.50;102215.47;4979896;28;20368;-80
2021/04/19 01:52:21;;;;;;;23.73;13.80;;;;;;;6.81;81.46;102203.38;5008470;28;20042;-80
2021/04/19 01:54:47;;;;;;;22.73;12.80;;;;;;;6.86;81.01;102219.59;5001810;28;20269;-80
2021/04/19 01:57:13;;;;;;;17.75;12.48;;;;;;;6.90;80.85;102222.88;5014072;28;20044;-80
2021/04/19 01:59:40;;;;;;;24.13;13.75;;;;;;;6.86;81.02;102214.41;4996465;28;20489;-80
2021/04/19 02:02:14;;;;;;;16.77;12.25;;;;;;;6.91;80.99;102220.22;5000781;28;20415;-80
2021/04/19 02:04:48;;;;;;;17.75;13.05;;;;;;;6.89;80.92;102206.50;4981223;28;20420;-80
2021/04/19 02:07:27;;;;;;;21.77;13.40;;;;;;;6.77;81.13;102196.63;4993853;28;20037;-80
2021/04/19 02:10:10;;;;;;;19.80;13.52;;;;;;;6.84;81.25;102212.78;4964326;28;20034;-80
2021/04/19 02:12:39;;;;;;;23.90;13.10;;;;;;;6.82;81.56;102211.97;4987323;28;20141;-80
2021/04/19 02:15:16;;;;;;;18.25;12.85;;;;;;;6.75;81.15;102200.19;4997152;28;20069;-80
2021/04/19 02:17:59;;;;;;;20.77;12.52;;;;;;;6.77;81.37;102196.63;4984637;28;20030;-80
2021/04/19 02:20:36;;;;;;;23.23;13.77;;;;;;;6.86;80.91;102209.22;4993683;28;20404;-80
2021/04/19 02:23:09;;;;;;;18.90;13.80;;;;;;;6.83;80.82;102193.81;4995178;28;20030;-80
2021/04/19 02:25:41;;;;;;;21.85;12.38;;;;;;;6.78;80.98;102200.91;4997234;28;20141;-80
2021/04/19 02:28:22;;;;;;;24.77;13.85;;;;;;;6.88;81.15;102215.19;4991882;28;20034;-80
2021/04/19 02:30:53;;;;;;;18.08;12.98;;;;;;;6.86;81.27;102209.22;5001649;28;20034;-81
2021/04/19 02:33:20;;;;;;;19.02;12.45;;;;;;;6.79;81.59;102184.47;4983076;28;20064;-80
2021/04/19 02:35:48;;;;;;;19.83;13.55;;;;;;;6.73;81.37;102176.94;5013007;28;20044;-80
2021/04/19 02:38:24;;;;;;;24.77;13.82;;;;;;;6.86;81.89;102195.44;4975874;28;20049;-80
2021/04/19 02:40:55;;;;;;;22.30;13.48;;;;;;;6.93;81.46;102209.81;4980589;28;20056;-80
2021/04/19 02:43:23;;;;;;;20.73;13.40;;;;;;;6.88;82.04;102199.66;5015876;28;20045;-80
2021/04/19 02:45:51;;;;;;;22.75;13.50;;;;;;;6.92;81.01;102193.44;4999353;28;20045;-80
2021/04/19 02:48:24;;;;;;;20.83;13.77;;;;;;;6.95;81.85;102201.06;4996266;28;20061;-80
2021/04/19 02:50:57;;;;;;;21.55;13.23;;;;;;;6.97;80.90;102211.38;4983747;28;20864;-80
2021/04/19 02:53:24;;;;;;;20.63;14.13;;;;;;;6.90;81.57;102205.59;4993189;28;20042;-80
2021/04/19 02:55:51;;;;;;;24.05;14.35;;;;;;;6.92;81.76;102205.53;4996078;28;20469;-80
2021/04/19 02:58:27;;;;;;;23.02;13.13;;;;;;;6.79;81.59;102199.16;4996032;28;20038;-80
2021/04/19 03:00:53;;;;;;;22.15;12.32;;;;;;;6.74;81.37;102203.69;4996664;28;20038;-80
2021/04/19 03:03:25;;;;;;;21.45;12.85;;;;;;;6.71;81.45;102203.81;4963800;28;20072;-80
2021/04/19 03:05:57;;;;;;;24.05;13.45;;;;;;;6.59;81.64;102205.13;4983368;28;20022;-80
2021/04/19 03:08:26;;;;;;;19.75;13.40;;;;;;;6.48;81.21;102202.13;4979093;28;20034;-80
2021/04/19 03:10:58;;;;;;;17.73;12.75;;;;;;;6.37;81.37;102202.53;5009672;28;20183;-80
2021/04/19 03:13:28;;;;;;;20.35;13.75;;;;;;;6.27;82.34;102201.19;4977720;28;20488;-80
2021/04/19 03:16:00;;;;;;;19.90;12.52;;;;;;;6.25;82.08;102210.75;4993542;28;20478;-80
2021/04/19 03:18:32;;;;;;;21.38;13.15;;;;;;;6.12;81.94;102202.63;4999928;28;20036;-80
2021/04/19 03:21:02;;;;;;;22.73;13.40;;;;;;;6.10;82.23;102208.72;4998137;28;20475;-80
2021/04/19 03:23:29;;;;;;;20.30;13.52;;;;;;;6.01;82.54;102204.75;4982491;28;20129;-80
2021/04/19 03:26:00;;;;;;;21.80;13.52;;;;;;;5.92;82.64;102210.25;4997203;28;20050;-80
2021/04/19 03:28:30;;;;;;;20.52;12.90;;;;;;;5.85;82.57;102195.84;5000501;28;20026;-80
2021/04/19 03:31:09;;;;;;;21.83;13.20;;;;;;;5.82;82.82;102196.78;4997236;28;20034;-79
2021/04/19 03:33:42;;;;;;;22.38;12.85;;;;;;;5.75;82.90;102203.94;4995256;28;20044;-79
2021/04/19 03:36:11;;;;;;;22.48;13.00;;;;;;;5.69;82.96;102198.97;4976756;28;20039;-79
2021/04/19 03:38:39;;;;;;;22.08;12.77;;;;;;;5.68;83.15;102196.44;5001731;28;20462;-79
2021/04/19 03:41:08;;;;;;;20.45;12.30;;;;;;;5.63;83.13;102204.38;5003575;28;20784;-79
2021/04/19 03:43:38;;;;;;;19.65;12.68;;;;;;;5.56;82.71;102197.69;5002656;28;20073;-80
2021/04/19 03:46:16;;;;;;;19.52;12.02;;;;;;;5.55;83.06;102206.34;4987980;28;20389;-80
2021/04/19 03:49:12;;;;;;;18.70;11.75;;;;;;;5.41;83.27;102196.53;4997858;28;20054;-79
2021/04/19 03:52:04;;;;;;;15.85;11.48;;;;;;;5.28;83.94;102190.09;4999816;28;20045;-80
2021/04/19 03:54:35;;;;;;;20.55;12.80;;;;;;;5.32;83.97;102190.81;4981105;28;20042;-79
2021/04/19 03:57:05;;;;;;;20.48;11.93;;;;;;;5.36;84.44;102202.72;5002196;28;20120;-80
2021/04/19 03:59:33;;;;;;;15.85;12.32;;;;;;;5.41;84.44;102191.34;4998273;28;20030;-80
2021/04/19 04:02:06;;;;;;;16.10;12.65;;;;;;;5.44;84.38;102196.41;4974806;28;20043;-79
2021/04/19 04:04:51;;;;;;;18.05;11.88;;;;;;;5.54;83.77;102204.66;5001969;28;20132;-79
2021/04/19 04:07:26;;;;;;;20.08;12.80;;;;;;;5.52;84.38;102200.47;4999271;28;20042;-79
2021/04/19 04:09:56;;;;;;;19.70;12.07;;;;;;;5.67;83.90;102212.84;4996776;28;20503;-79
2021/04/19 04:12:21;;;;;;;22.65;12.85;;;;;;;5.64;83.94;102195.72;5001383;28;20768;-80
2021/04/19 04:14:56;;;;;;;21.95;13.05;;;;;;;5.63;84.24;102209.53;4994824;28;20684;-79
2021/04/19 04:17:30;;;;;;;17.05;11.45;;;;;;;5.63;83.72;102213.84;4986625;28;20042;-79
2021/04/19 04:20:15;;;;;;;25.35;11.82;;;;;;;5.57;84.08;102207.19;5000785;28;20037;-79
2021/04/19 04:22:49;;;;;;;18.65;12.05;;;;;;;5.54;83.96;102209.00;4998700;28;20061;-80
2021/04/19 04:25:18;;;;;;;21.25;12.23;;;;;;;5.45;83.82;102208.44;4953309;28;20512;-79
2021/04/19 04:27:45;;;;;;;23.13;13.10;;;;;;;5.47;84.35;102209.22;4984198;28;20171;-80
2021/04/19 04:30:12;;;;;;;20.65;11.60;;;;;;;5.45;84.21;102210.19;4981401;28;20424;-79
2021/04/19 04:32:46;;;;;;;22.70;11.82;;;;;;;5.45;84.55;102213.59;4982908;28;20061;-79
2021/04/19 04:35:26;;;;;;;19.77;11.70;;;;;;;5.38;84.72;102203.50;4996754;28;20670;-78
2021/04/19 04:38:07;;;;;;;19.42;11.10;;;;;;;5.39;84.40;102224.16;4972797;28;20033;-78
2021/04/19 04:40:43;;;;;;;18.27;10.93;;;;;;;5.36;83.84;102224.22;4987710;28;20041;-78
2021/04/19 04:43:16;;;;;;;20.67;11.05;;;;;;;5.36;83.97;102225.97;5001954;28;20034;-78
2021/04/19 04:45:43;;;;;;;20.35;11.13;;;;;;;5.33;84.00;102232.09;4997607;28;20035;-78
2021/04/19 04:48:27;;;;;;;20.70;11.90;;;;;;;5.11;84.03;102188.06;4995290;28;20048;-78
2021/04/19 04:51:04;;;;;;;19.52;11.43;;;;;;;5.30;83.89;102226.19;4998186;28;20033;-78
2021/04/19 04:53:42;;;;;;;20.50;11.55;;;;;;;5.19;85.04;102210.19;4972237;28;20034;-77
2021/04/19 04:56:11;;;;;;;16.38;10.32;;;;;;;5.12;84.36;102202.66;4993129;28;20551;-78
2021/04/19 04:58:38;;;;;;;19.70;11.82;;;;;;;5.19;85.33;102210.19;4995013;28;20114;-77
2021/04/19 05:01:07;;;;;;;26.48;10.57;;;;;;;5.18;84.63;102203.34;5000125;28;20042;-78
2021/04/19 05:03:34;;;;;;;18.83;10.90;;;;;;;5.25;84.58;102200.53;4979443;28;20069;-78
2021/04/19 05:06:01;;;;;;;19.08;11.15;;;;;;;5.30;84.72;102208.09;4997889;28;20116;-77
2021/04/19 05:08:28;;;;;;;18.83;10.68;;;;;;;5.24;84.66;102200.56;5007190;28;20042;-77
2021/04/19 05:10:56;;;;;;;18.60;11.13;;;;;;;5.27;84.20;102214.22;5001996;28;20034;-77
2021/04/19 05:13:22;;;;;;;18.00;11.05;;;;;;;5.32;84.46;102219.22;4997166;28;20030;-78
2021/04/19 05:15:49;;;;;;;17.60;11.75;;;;;;;5.34;84.21;102225.19;5000370;28;20535;-77
2021/04/19 05:18:16;;;;;;;17.25;11.73;;;;;;;5.28;84.44;102226.25;4999291;28;20034;-78
2021/04/19 05:20:42;;;;;;;18.02;11.23;;;;;;;5.23;84.08;102222.13;5001445;28;20758;-77
2021/04/19 05:23:09;;;;;;;18.48;11.40;;;;;;;5.24;84.41;102232.41;4998824;28;20056;-77
2021/04/19 05:25:35;;;;;;;20.58;11.82;;;;;;;5.18;84.61;102219.69;4981725;28;20058;-77
2021/04/19 05:28:01;;;;;;;22.80;11.57;;;;;;;5.20;84.45;102222.22;4997251;28;21250;-77
2021/04/19 05:30:28;;;;;;;16.25;11.30;;;;;;;5.23;84.44;102222.13;5013526;28;20580;-77
2021/04/19 05:32:54;;;;;;;20.85;11.95;;;;;;;5.25;85.05;102228.09;4980853;28;20137;-77
2021/04/19 05:35:21;;;;;;;17.77;11.50;;;;;;;5.27;84.84;102219.38;4991858;28;20042;-77
2021/04/19 05:37:48;;;;;;;21.67;12.18;;;;;;;5.33;85.17;102219.16;5001033;28;20038;-77
2021/04/19 05:40:15;;;;;;;20.15;12.55;;;;;;;5.43;84.70;102228.31;5002931;28;20369;-77
2021/04/19 05:42:40;;;;;;;18.77;12.40;;;;;;;5.42;84.57;102213.72;4999409;28;20470;-77
2021/04/19 05:45:08;;;;;;;19.02;12.25;;;;;;;5.68;84.30;102235.22;4993067;28;20041;-77
2021/04/19 05:47:34;;;;;;;22.70;12.68;;;;;;;5.75;85.04;102223.78;4998719;28;20129;-77
2021/04/19 05:49:59;;;;;;;19.48;12.98;;;;;;;5.88;84.33;102227.59;4997633;28;20901;-77
2021/04/19 05:52:25;;;;;;;24.58;13.20;;;;;;;5.99;84.42;102227.25;4996027;28;20042;-77
2021/04/19 05:54:51;;;;;;;21.73;12.60;;;;;;;6.14;84.03;102225.84;4997830;28;20040;-77
2021/04/19 05:57:28;;;;;;;21.20;12.05;;;;;;;6.29;83.96;102231.31;4979641;28;20038;-77
2021/04/19 06:00:04;;;;;;;20.17;12.38;;;;;;;6.44;83.38;102229.00;4994150;28;20038;-77
2021/04/19 06:02:40;;;;;;;20.23;12.18;;;;;;;6.60;83.43;102238.72;5000821;28;20077;-77
2021/04/19 06:05:15;;;;;;;18.73;11.55;;;;;;;6.69;82.73;102232.34;4997235;28;20044;-77
2021/04/19 06:08:18;;;;;;;17.80;11.55;;;;;;;6.85;82.37;102236.03;5000615;28;20034;-78
2021/04/19 06:11:26;;;;;;;16.90;11.40;;;;;;;6.91;81.80;102242.69;4998410;28;20066;-77
2021/04/19 06:14:25;;;;;;;17.40;11.33;;;;;;;6.91;81.33;102229.75;4990314;28;20568;-78
2021/04/19 06:16:52;;;;;;;20.25;11.20;;;;;;;7.00;81.56;102234.53;4998068;28;20038;-77
2021/04/19 06:19:20;;;;;;;21.30;12.15;;;;;;;7.07;81.59;102230.81;4999408;28;20077;-77
2021/04/19 06:21:46;;;;;;;22.02;11.88;;;;;;;7.20;81.50;102239.78;5009403;28;20165;-78
2021/04/19 06:24:12;;;;;;;17.88;12.45;;;;;;;7.18;81.53;102214.81;4998614;28;20451;-77
2021/04/19 06:26:39;;;;;;;19.75;10.93;;;;;;;7.34;81.02;102230.56;4998635;28;20054;-77
2021/04/19 06:29:06;;;;;;;19.10;11.07;;;;;;;7.36;81.43;102219.25;5000939;28;20033;-77
2021/04/19 06:31:32;;;;;;;15.68;11.23;;;;;;;7.56;80.44;102223.59;5000134;28;20855;-77
2021/04/19 06:34:07;;;;;;;17.45;10.82;;;;;;;7.73;80.03;102241.03;4995744;28;20084;-77
2021/04/19 06:36:43;;;;;;;18.27;10.85;;;;;;;7.94;80.03;102247.00;4993767;28;20071;-77
2021/04/19 06:39:12;;;;;;;18.05;10.38;;;;;;;7.96;78.70;102219.25;4995948;28;20038;-77
2021/04/19 06:41:37;;;;;;;14.02;10.18;;;;;;;8.36;77.68;102244.25;5000431;28;20140;-76
2021/04/19 06:44:04;;;;;;;15.60;10.35;;;;;;;8.45;77.16;102236.06;4992956;28;20066;-77
2021/04/19 06:46:31;;;;;;;21.52;10.57;;;;;;;8.54;76.84;102227.81;4997889;28;20141;-77
2021/04/19 06:48:57;;;;;;;15.30;10.05;;;;;;;8.71;77.21;102245.22;4997859;28;20076;-77
2021/04/19 06:51:24;;;;;;;15.45;9.85;;;;;;;8.80;76.96;102250.00;4998712;28;20124;-77
2021/04/19 06:53:54;;;;;;;17.73;10.55;;;;;;;8.84;76.44;102248.91;4998066;28;20112;-77
2021/04/19 06:56:23;;;;;;;19.92;10.07;;;;;;;8.80;77.15;102250.00;4997181;28;20042;-77
2021/04/19 06:58:52;;;;;;;14.85;10.80;;;;;;;8.55;76.79;102218.28;5002677;28;20045;-77
2021/04/19 07:01:23;;;;;;;17.27;11.20;;;;;;;8.72;77.11;102250.34;4998323;28;20037;-77
2021/04/19 07:03:55;;;;;;;17.17;10.70;;;;;;;8.65;77.31;102242.91;4998340;28;20029;-77
2021/04/19 07:06:21;;;;;;;25.17;11.73;;;;;;;8.62;77.84;102243.91;4997130;28;20128;-77
2021/04/19 07:08:48;;;;;;;24.10;11.48;;;;;;;8.59;77.76;102248.38;4999802;28;20172;-77
2021/04/19 07:11:18;;;;;;;15.80;10.45;;;;;;;8.48;77.13;102233.31;5001056;28;20052;-78
2021/04/19 07:13:44;;;;;;;24.23;11.45;;;;;;;8.55;77.77;102255.47;5001214;28;20038;-77
2021/04/19 07:16:12;;;;;;;22.05;11.73;;;;;;;8.55;77.89;102239.91;4998401;28;20033;-77
2021/04/19 07:18:38;;;;;;;22.98;13.13;;;;;;;8.72;77.04;102234.75;4998534;28;20042;-78
2021/04/19 07:21:05;;;;;;;19.77;11.88;;;;;;;8.90;76.47;102246.03;5001831;28;20045;-78
2021/04/19 07:23:35;;;;;;;19.63;11.50;;;;;;;8.70;75.83;102205.41;4971855;28;20514;-78
2021/04/19 07:26:02;;;;;;;26.92;12.70;;;;;;;8.75;76.02;102231.16;4975734;28;20367;-77
2021/04/19 07:28:27;;;;;;;19.85;12.30;;;;;;;8.98;75.32;102253.47;4990245;28;20116;-76
2021/04/19 07:31:00;;;;;;;24.25;12.60;;;;;;;8.91;74.88;102239.91;4993629;28;20100;-77
2021/04/19 07:33:27;;;;;;;28.45;12.98;;;;;;;8.92;75.64;102220.81;4983262;28;20045;-77
2021/04/19 07:35:53;;;;;;;24.52;12.48;;;;;;;9.15;74.71;102237.84;4993366;28;20128;-76
2021/04/19 07:38:36;;;;;;;19.23;11.43;;;;;;;9.20;75.45;102216.84;4963697;28;20060;-77
2021/04/19 07:41:02;;;;;;;21.77;11.70;;;;;;;9.17;74.13;102220.44;4982738;28;20037;-77
2021/04/19 07:43:35;;;;;;;20.63;12.20;;;;;;;9.26;74.32;102232.97;4976704;28;20042;-76
2021/04/19 07:46:16;;;;;;;21.73;13.00;;;;;;;9.29;74.46;102213.78;4990111;28;20129;-77
2021/04/19 07:48:47;;;;;;;20.88;12.15;;;;;;;9.53;74.25;102217.75;4966066;28;21877;-77
2021/04/19 07:51:48;;;;;;;20.02;12.23;;;;;;;9.66;73.10;102218.78;4996898;28;20049;-77
2021/04/19 07:54:17;;;;;;;18.45;11.90;;;;;;;9.71;73.23;102218.56;4990193;28;20048;-77
2021/04/19 07:57:05;;;;;;;18.08;11.73;;;;;;;9.64;73.29;102199.81;4990666;28;20052;-77
2021/04/19 07:59:33;;;;;;;19.48;11.25;;;;;;;9.81;72.69;102211.09;4971370;28;20049;-76
2021/04/19 08:02:00;;;;;;;20.85;11.10;;;;;;;10.01;72.73;102226.50;5000924;28;20042;-76
2021/04/19 08:04:27;;;;;;;19.75;10.65;;;;;;;10.04;71.99;102215.91;4971400;28;20042;-77
2021/04/19 08:06:53;;;;;;;20.83;10.77;;;;;;;10.01;71.50;102187.47;5013898;28;20488;-77
2021/04/19 08:09:26;;;;;;;16.67;10.30;;;;;;;10.35;72.16;102228.16;4971712;28;20048;-77
2021/04/19 08:11:57;;;;;;;15.85;9.32;;;;;;;10.39;71.71;102214.03;4987390;28;20117;-77
2021/04/19 08:14:30;;;;;;;16.60;10.65;;;;;;;10.36;71.15;102226.41;4990500;28;20045;-77
2021/04/19 08:17:11;;;;;;;17.23;11.07;;;;;;;10.36;71.00;102193.38;4961253;28;20042;-77
2021/04/19 08:19:39;;;;;;;14.82;9.85;;;;;;;10.45;70.48;102215.50;4997377;28;20538;-77
2021/04/19 08:22:24;;;;;;;20.40;10.40;;;;;;;10.40;70.77;102226.16;4973520;28;20032;-77
2021/04/19 08:24:50;;;;;;;15.90;9.95;;;;;;;10.26;70.85;102213.91;4971535;28;20775;-77
2021/04/19 08:27:24;;;;;;;18.15;10.00;;;;;;;10.39;70.68;102229.66;4991449;28;20057;-77
2021/04/19 08:29:50;;;;;;;21.88;11.02;;;;;;;10.40;70.86;102226.16;4996815;28;20049;-77
2021/04/19 08:32:18;;;;;;;20.70;11.80;;;;;;;10.59;70.33;102215.53;4970462;28;20088;-78
2021/04/19 08:34:45;;;;;;;19.73;11.63;;;;;;;10.68;70.44;102220.25;4993534;28;20042;-78
2021/04/19 08:37:12;;;;;;;24.20;12.18;;;;;;;10.83;70.32;102205.53;4976156;28;20053;-77
2021/04/19 08:39:39;;;;;;;15.25;11.18;;;;;;;11.04;69.25;102216.50;4995824;28;20026;-78
2021/04/19 08:42:05;;;;;;;21.05;11.43;;;;;;;11.06;68.28;102220.69;4979837;28;20103;-78
2021/04/19 08:44:33;;;;;;;18.95;11.85;;;;;;;11.05;68.37;102225.97;4997707;28;20042;-77
2021/04/19 08:47:00;;;;;;;19.52;11.48;;;;;;;11.22;67.74;102230.22;4973374;28;20408;-78
2021/04/19 08:49:27;;;;;;;17.83;10.48;;;;;;;11.38;68.09;102203.16;4994639;28;20110;-77
2021/04/19 08:51:53;;;;;;;20.23;11.25;;;;;;;11.53;67.22;102217.06;4974015;28;20053;-78
2021/04/19 08:54:20;;;;;;;16.15;10.57;;;;;;;11.48;67.13;102213.88;4997172;28;20042;-78
2021/04/19 08:56:46;;;;;;;21.38;10.68;;;;;;;11.40;67.03;102230.00;4969396;28;20037;-77
2021/04/19 08:59:13;;;;;;;16.52;10.80;;;;;;;11.34;67.21;102235.56;4981771;28;20038;-77
2021/04/19 09:01:41;;;;;;;17.30;10.10;;;;;;;11.59;67.09;102241.94;4992568;28;20087;-78
2021/04/19 09:04:07;;;;;;;17.95;10.85;;;;;;;11.60;66.49;102226.19;4967983;28;20547;-77
2021/04/19 09:06:44;;;;;;;17.17;11.32;;;;;;;11.38;65.79;102195.34;4997888;28;20041;-78
2021/04/19 09:09:32;;;;;;;20.05;12.98;;;;;;;11.69;66.79;102236.09;4971908;28;20506;-78
2021/04/19 09:12:10;;;;;;;20.15;12.95;;;;;;;12.05;66.52;102227.00;4994390;28;20508;-77
2021/04/19 09:14:38;;;;;;;21.95;14.23;;;;;;;12.10;65.23;102238.81;4963565;28;20034;-78
2021/04/19 09:17:06;;;;;;;23.08;13.30;;;;;;;12.24;63.62;102239.75;4992235;28;20048;-78
2021/04/19 09:19:34;;;;;;;21.10;15.57;;;;;;;12.23;65.89;102240.69;4973979;28;20383;-78
2021/04/19 09:22:12;;;;;;;21.05;14.65;;;;;;;12.47;64.73;102248.75;4990863;28;20663;-77
2021/04/19 09:24:52;;;;;;;22.10;14.88;;;;;;;12.30;66.10;102249.78;4953575;28;20050;-77
2021/04/19 09:27:44;;;;;;;18.98;14.43;;;;;;;12.25;65.94;102257.94;4990994;28;20054;-78
2021/04/19 09:30:29;;;;;;;24.20;13.63;;;;;;;12.28;66.61;102257.72;4991789;28;20050;-78
2021/04/19 09:33:06;;;;;;;19.20;13.80;;;;;;;12.30;65.79;102265.47;4993193;28;20035;-77
2021/04/19 09:35:41;;;;;;;18.38;13.23;;;;;;;12.28;66.35;102270.78;4969742;28;20110;-77
2021/04/19 09:38:08;;;;;;;19.52;12.90;;;;;;;12.13;66.12;102263.91;4998569;28;20042;-77
2021/04/19 09:40:56;;;;;;;17.42;12.45;;;;;;;11.74;66.39;102251.47;4969570;28;20035;-76
2021/04/19 09:43:41;;;;;;;21.08;13.38;;;;;;;11.59;66.42;102266.25;4971005;28;20043;-77
2021/04/19 09:46:09;;;;;;;21.13;13.45;;;;;;;11.29;68.45;102257.63;4976943;28;20479;-77
2021/04/19 09:48:38;;;;;;;19.17;14.45;;;;;;;11.28;68.81;102275.03;4990253;28;20046;-77
2021/04/19 09:51:14;;;;;;;19.45;14.57;;;;;;;11.19;68.02;102244.28;4970285;28;20480;-77
2021/04/19 09:53:59;;;;;;;21.30;14.18;;;;;;;11.40;67.37;102268.28;4994840;28;20056;-76
2021/04/19 09:56:31;;;;;;;22.73;15.52;;;;;;;11.35;67.49;102254.66;4980240;28;20025;-75
2021/04/19 09:58:57;;;;;;;25.77;15.27;;;;;;;11.29;67.82;102236.75;4990322;28;20050;-77
2021/04/19 10:01:24;;;;;;;19.63;14.48;;;;;;;11.52;67.80;102254.53;4966512;28;20117;-76
2021/04/19 10:03:51;;;;;;;20.90;14.25;;;;;;;11.74;66.63;102244.47;4994722;28;20030;-76
2021/04/19 10:06:36;;;;;;;19.67;13.13;;;;;;;11.85;65.58;102249.09;4971550;28;20891;-76
2021/04/19 10:09:06;;;;;;;18.77;13.57;;;;;;;11.90;66.32;102252.25;4992750;28;20361;-77
2021/04/19 10:11:35;;;;;;;21.67;14.07;;;;;;;11.92;65.88;102247.78;4986195;28;20114;-76
2021/04/19 10:14:21;;;;;;;23.35;14.55;;;;;;;12.01;66.07;102235.91;4995674;28;20038;-77
2021/04/19 10:16:49;;;;;;;20.95;13.93;;;;;;;12.23;64.76;102238.06;4958345;28;20034;-76
2021/04/19 10:19:26;;;;;;;21.00;13.38;;;;;;;12.24;64.50;102255.41;4997265;28;20127;-77
2021/04/19 10:22:07;;;;;;;19.08;13.20;;;;;;;12.22;64.58;102249.44;4988022;28;20469;-77
2021/04/19 10:24:36;;;;;;;21.23;13.73;;;;;;;12.06;65.16;102253.00;4990308;28;20059;-75
2021/04/19 10:27:04;;;;;;;19.50;13.90;;;;;;;12.04;65.14;102246.19;4993241;28;20477;-75
2021/04/19 10:29:30;;;;;;;27.58;14.77;;;;;;;12.26;65.45;102264.00;4999892;28;20061;-75
2021/04/19 10:32:02;;;;;;;21.67;14.18;;;;;;;12.14;64.72;102251.69;4976872;28;20038;-75
2021/04/19 10:34:32;;;;;;;24.90;18.13;;;;;;;12.27;63.94;102255.22;4992671;28;20037;-77
2021/04/19 10:36:58;;;;;;;23.30;15.57;;;;;;;12.19;65.78;102254.84;4992728;28;20054;-76
2021/04/19 10:39:26;;;;;;;23.15;15.63;;;;;;;12.09;65.76;102249.34;4992870;28;20081;-77
2021/04/19 10:41:54;;;;;;;25.30;15.38;;;;;;;11.92;65.74;102255.59;4956835;28;20049;-76
2021/04/19 10:44:38;;;;;;;26.80;16.05;;;;;;;11.88;66.15;102248.91;4990675;28;20049;-75
2021/04/19 10:47:05;;;;;;;26.48;16.25;;;;;;;11.73;66.67;102249.78;4994625;28;20037;-76
2021/04/19 10:49:31;;;;;;;29.90;16.33;;;;;;;11.74;65.78;102241.88;4990916;28;20041;-76
2021/04/19 10:52:15;;;;;;;23.92;17.15;;;;;;;11.61;66.66;102234.84;4990593;28;20054;-76
2021/04/19 10:54:43;;;;;;;22.80;16.20;;;;;;;11.80;66.08;102251.97;4996381;28;20382;-76
2021/04/19 10:57:20;;;;;;;24.00;15.93;;;;;;;11.92;66.54;102253.00;4989775;28;20116;-76
2021/04/19 10:59:48;;;;;;;22.73;15.27;;;;;;;12.24;66.18;102248.41;4982335;28;20029;-76
2021/04/19 11:02:14;;;;;;;21.98;14.80;;;;;;;12.51;63.23;102261.50;4971453;28;20080;-76
2021/04/19 11:04:40;;;;;;;22.63;15.15;;;;;;;12.43;63.70;102258.56;4975224;28;20787;-77
2021/04/19 11:07:24;;;;;;;25.17;15.48;;;;;;;12.48;64.86;102260.88;4986674;28;20046;-76
2021/04/19 11:10:22;;;;;;;23.15;15.57;;;;;;;12.32;63.19;102251.38;4990457;28;20031;-76
2021/04/19 11:13:09;;;;;;;22.40;14.85;;;;;;;12.32;63.30;102268.81;4943473;28;20039;-77
2021/04/19 11:15:46;;;;;;;20.50;14.77;;;;;;;12.89;63.30;102261.66;4978722;28;20033;-76
2021/04/19 11:18:23;;;;;;;21.70;14.55;;;;;;;13.43;61.23;102234.63;4951828;28;20050;-77
2021/04/19 11:20:54;;;;;;;20.17;13.48;;;;;;;13.35;59.76;102244.78;4987197;28;20041;-77
2021/04/19 11:23:26;;;;;;;22.38;14.70;;;;;;;13.51;58.78;102246.25;4971240;28;20471;-77
2021/04/19 11:25:53;;;;;;;25.30;13.88;;;;;;;13.79;59.43;102239.13;4986903;28;20047;-77
2021/04/19 11:28:20;;;;;;;18.95;13.98;;;;;;;13.93;58.18;102233.78;4942574;28;20436;-77
2021/04/19 11:30:48;;;;;;;19.95;14.27;;;;;;;14.10;57.72;102219.50;4998340;28;20038;-77
2021/04/19 11:33:25;;;;;;;18.58;13.70;;;;;;;13.71;58.70;102231.81;4973310;28;20046;-77